AirNav   Air Wisconsin Up To $57,000 Bonus
 
 1093 users online  

76F Van Zandt County Regional Airport
Wills Point, Texas, USA

GOING TO WILLS POINT?


FAA INFORMATION EFFECTIVE 26 MARCH 2020

Location

FAA Identifier: 76F
Lat/Long: 32-40-53.1000N 095-59-02.9000W
32-40.885000N 095-59.048333W
32.6814167,-95.9841389
(estimated)
Elevation: 522 ft. / 159.1 m (surveyed)
Variation: 06E (1985)
From city: 3 miles SE of WILLS POINT, TX
Time zone: UTC -5 (UTC -6 during Standard Time)
Zip code: 75169

Airport Operations

Airport use: Open to the public
Activation date: 08/1966
Control tower: no
ARTCC: FORT WORTH CENTER
FSS: FORT WORTH FLIGHT SERVICE STATION
NOTAMs facility: FTW (NOTAM-D service available)
Attendance: MON-FRI 0800-1700
Wind indicator: lighted
Segmented circle: yes
Beacon: white-green (lighted land airport)
Operates sunset to sunrise.

Airport Communications

CTAF/UNICOM: 122.725
WX ASOS at TRL (14 nm W): 119.275 (972-551-1334)

Nearby radio navigation aids

VOR radial/distance  VOR name  Freq  Var
CQYr016/32.0CEDAR CREEK VORTAC114.8006E
UIMr241/33.3QUITMAN VOR/DME114.0008E
TYRr298/35.3TYLER VOR/DME114.2006E
SLRr208/38.2SULPHUR SPRINGS VOR/DME109.0008E

 
NDB name  Hdg/Dist  Freq  Var  ID
TRAVIS103/14.226006EAVZ .- ...- --..
CADDO MILLS142/25.331606EMII -- .. ..
MESQUITE103/28.624803EPQF .--. --.- ..-.
ATHENS344/32.326902EAHX .- .... -..-
CROSSROADS350/37.121508ECSZ -.-. ... --..

Airport Services

Fuel available: 100LL
SELF SERVE AVBL 24 HRS.
Parking: tiedowns
Airframe service: MINOR
AIRFRAME & POWER PLANT REPAIRS BY PRIOR ARRANGEMENT, CALL 903-873-3381.
Powerplant service: MINOR
Bottled oxygen: NONE
Bulk oxygen: NONE

Runway Information

Runway 17/35

Dimensions: 3230 x 50 ft. / 985 x 15 m
Surface: asphalt, in excellent condition
Weight bearing capacity: 
Single wheel: 12.0
Runway edge lights: low intensity
RUNWAY 17  RUNWAY 35
Latitude: 32-41.151842N32-40.619055N
Longitude: 095-59.048067W095-59.047215W
Elevation: 522.0 ft.502.0 ft.
Traffic pattern: leftleft
Runway heading: 174 magnetic, 180 true354 magnetic, 360 true
Markings: basic, in good conditionbasic, in good condition
Obstructions: 30 ft. tree, 900 ft. from runway, 175 ft. right of centerline, 23:1 slope to clear17 ft. trees, 483 ft. from runway, 133 ft. right of centerline, 16:1 slope to clear

Airport Ownership and Management from official FAA records

Ownership: Publicly-owned
Owner: CITY OF WILLS POINT
PO BOX 505
WILLS POINT, TX 75169
Phone 903-873-2578
Manager: PAM PEARSON
PO BOX 217
WILLS POINT, TX 75169
Phone 903-873-3381
ARPT PHYSICAL ADDRESS: 36671 STATE HWY 64.

Airport Operational Statistics

Aircraft based on the field: 14
Single engine airplanes: 12
Helicopters: 2
    
Aircraft operations: avg 92/week *
75% local general aviation
25% transient general aviation
* for 12-month period ending 31 December 2018

Additional Remarks

+68 FT ANTENNA 810 FT EAST OF RWY CNTRLN.
FOR CD CTC FORT WORTH ARTCC AT 817-858-7584.
24 HR PILOT ACES TO LOUNGE.

Instrument Procedures

There are no published instrument procedures at 76F.

Some nearby airports with instrument procedures:

KTRL - Terrell Municipal Airport (14 nm W)
KGVT - Majors Airport (24 nm N)
3F9 - Mineola Airport-Wisener Field (24 nm E)
KJDD - Wood County Airport (25 nm E)
7F3 - Caddo Mills Municipal Airport (25 nm NW)
 
Loc | Ops | Rwys | IFR | FBO | Links
Com | Nav | Svcs | Stats | Notes
Area around 76F (Van Zandt County Regional Airport)
 
Road maps at: MapQuest Bing Google
 
Aerial photo
WARNING: Photo may not be current or correct
Aerial photo of 76F (Van Zandt County Regional Airport)
Photo by Dwayne Wilson
Photo taken 17-Dec-2017
looking south.

Do you have a better or more recent aerial photo of Van Zandt County Regional Airport that you would like to share? If so, please send us your photo.

 
Sectional chart

 
Airport distance calculator
Flying to Van Zandt County Regional Airport? Find the distance to fly.

From to 76F

Sunrise and sunset
Times for 09-Apr-2020
 Local
(UTC-5)
 Zulu
(UTC)
Morning civil twilight06:3611:36
Sunrise07:0212:02
Sunset19:4900:49
Evening civil twilight20:1401:14

Current date and time
Zulu (UTC)  09-Apr-2020 21:56:24
Local (UTC-5)  09-Apr-2020 16:56:24
 
METAR
KTRL 
14nm W 
092053Z AUTO 06007KT 10SM -RA FEW090 BKN110 22/14 A2990 RMK AO2 RAB47 SLP119 P0000 60000 T02170139 55003
KGVT 
23nm N 
092130Z AUTO 00000KT 10SM OVC040 23/12 A2991 RMK AO2 LTG DSNT S
KJDD 
25nm E 
092135Z AUTO 02003KT 10SM SCT036 SCT120 21/14 A2989 RMK AO2 LTG DSNT S
KF46 
27nm NW 
092135Z AUTO 12004KT 10SM BKN039 OVC110 22/12 A2993 RMK AO2 LTG DSNT SE T02200121
KHQZ 
28nm W 
092050Z 03006KT 10SM BKN080 OVC110 22/13 A2991
TAF
KTYR 
35nm SE 
091721Z 0918/1018 08010G16KT P6SM SKC FM100000 04009KT P6SM VCSH SCT040 OVC250 FM100300 05005KT P6SM OVC080 FM101400 05012G18KT P6SM BKN250 FM101700 09011G17KT P6SM BKN250
NOTAMs
Click for the latest NOTAMs
NOTAMs are issued by the DoD/FAA and will open in a separate window not controlled by AirNav.

 

 
 

FBO, Fuel Providers, and Aircraft Ground Support

  
 Business Name 
 
 Contact 
 
 Services / Description 
 
Fuel Prices
 
Comments
  
Van Zandt County Regional Airport 903-873-3381
214-803-5621
[web site]
[email]
Aviation fuel, Aircraft parking (ramp or tiedown), Passenger terminal and lounge, Flight training, Courtesy transportation, Pilots lounge / snooze room, ...

More info about Van Zandt County Regional Airport
Avfuel
100LL
SS $3.49 
 Updated 26-Mar-2020
 
   2 read write
SS=Self service
Update Fuel Prices
 

Would you like to see your business listed on this page?

 If your business provides an interesting product or service to pilots, flight crews, aircraft, or users of the Van Zandt County Regional Airport, you should consider listing it here.  To start the listing process, click on the button below
 
Add a business
 

Other Pages about Van Zandt County Regional Airport

Update a link
 
Copyright © AirNav, LLC. All rights reserved. Privacy Policy  Contact